sensor_id;sensor_type;location;lat;lon;timestamp;P1;durP1;ratioP1;P2;durP2;ratioP2
11931;SDS011;6025;51.368;6.788;2023-04-10T00:01:29;6.27;;;4.50;;
11931;SDS011;6025;51.368;6.788;2023-04-10T00:06:24;5.50;;;4.83;;
11931;SDS011;6025;51.368;6.788;2023-04-10T00:11:17;5.10;;;4.30;;
11931;SDS011;6025;51.368;6.788;2023-04-10T00:16:10;8.57;;;5.03;;
11931;SDS011;6025;51.368;6.788;2023-04-10T00:21:01;5.20;;;4.70;;
11931;SDS011;6025;51.368;6.788;2023-04-10T00:25:53;5.27;;;4.57;;
11931;SDS011;6025;51.368;6.788;2023-04-10T00:30:44;5.53;;;4.80;;
11931;SDS011;6025;51.368;6.788;2023-04-10T00:35:37;5.50;;;5.00;;
11931;SDS011;6025;51.368;6.788;2023-04-10T00:40:29;6.40;;;5.30;;
11931;SDS011;6025;51.368;6.788;2023-04-10T00:45:21;5.50;;;4.70;;
11931;SDS011;6025;51.368;6.788;2023-04-10T00:50:12;5.53;;;4.93;;
11931;SDS011;6025;51.368;6.788;2023-04-10T00:55:06;5.30;;;4.80;;
11931;SDS011;6025;51.368;6.788;2023-04-10T00:59:58;5.90;;;5.27;;
11931;SDS011;6025;51.368;6.788;2023-04-10T01:04:50;5.67;;;5.07;;
11931;SDS011;6025;51.368;6.788;2023-04-10T01:09:43;5.50;;;5.00;;
11931;SDS011;6025;51.368;6.788;2023-04-10T01:14:41;5.27;;;4.77;;
11931;SDS011;6025;51.368;6.788;2023-04-10T01:19:45;5.83;;;4.90;;
11931;SDS011;6025;51.368;6.788;2023-04-10T01:24:54;6.00;;;5.07;;
11931;SDS011;6025;51.368;6.788;2023-04-10T01:29:54;6.87;;;5.00;;
11931;SDS011;6025;51.368;6.788;2023-04-10T01:34:48;8.43;;;5.57;;
11931;SDS011;6025;51.368;6.788;2023-04-10T01:39:40;5.67;;;5.07;;
11931;SDS011;6025;51.368;6.788;2023-04-10T01:44:33;5.93;;;5.00;;
11931;SDS011;6025;51.368;6.788;2023-04-10T01:49:27;7.30;;;5.60;;
11931;SDS011;6025;51.368;6.788;2023-04-10T01:54:18;6.83;;;5.77;;
11931;SDS011;6025;51.368;6.788;2023-04-10T01:59:11;6.20;;;5.53;;
11931;SDS011;6025;51.368;6.788;2023-04-10T02:04:02;8.40;;;5.13;;
11931;SDS011;6025;51.368;6.788;2023-04-10T02:08:56;6.10;;;5.50;;
11931;SDS011;6025;51.368;6.788;2023-04-10T02:13:51;6.37;;;5.57;;
11931;SDS011;6025;51.368;6.788;2023-04-10T02:18:43;6.27;;;5.53;;
11931;SDS011;6025;51.368;6.788;2023-04-10T02:23:36;7.43;;;6.20;;
11931;SDS011;6025;51.368;6.788;2023-04-10T02:28:29;6.53;;;5.60;;
11931;SDS011;6025;51.368;6.788;2023-04-10T02:33:20;6.93;;;5.87;;
11931;SDS011;6025;51.368;6.788;2023-04-10T02:38:12;6.53;;;5.57;;
11931;SDS011;6025;51.368;6.788;2023-04-10T02:43:03;6.43;;;5.73;;
11931;SDS011;6025;51.368;6.788;2023-04-10T02:47:57;6.70;;;5.87;;
11931;SDS011;6025;51.368;6.788;2023-04-10T02:52:48;7.23;;;5.50;;
11931;SDS011;6025;51.368;6.788;2023-04-10T02:57:40;6.60;;;5.80;;
11931;SDS011;6025;51.368;6.788;2023-04-10T03:02:32;6.10;;;4.90;;
11931;SDS011;6025;51.368;6.788;2023-04-10T03:07:25;8.07;;;5.37;;
11931;SDS011;6025;51.368;6.788;2023-04-10T03:12:17;6.93;;;5.33;;
11931;SDS011;6025;51.368;6.788;2023-04-10T03:17:09;5.97;;;5.13;;
11931;SDS011;6025;51.368;6.788;2023-04-10T03:22:01;7.60;;;5.77;;
11931;SDS011;6025;51.368;6.788;2023-04-10T03:26:54;6.10;;;5.30;;
11931;SDS011;6025;51.368;6.788;2023-04-10T03:31:45;6.57;;;5.53;;
11931;SDS011;6025;51.368;6.788;2023-04-10T03:36:37;6.17;;;4.90;;
11931;SDS011;6025;51.368;6.788;2023-04-10T03:41:29;5.77;;;4.87;;
11931;SDS011;6025;51.368;6.788;2023-04-10T03:46:21;6.70;;;4.87;;
11931;SDS011;6025;51.368;6.788;2023-04-10T03:51:13;5.73;;;4.87;;
11931;SDS011;6025;51.368;6.788;2023-04-10T03:56:05;5.10;;;4.60;;
11931;SDS011;6025;51.368;6.788;2023-04-10T04:00:57;5.40;;;4.70;;
11931;SDS011;6025;51.368;6.788;2023-04-10T04:05:50;5.40;;;4.70;;
11931;SDS011;6025;51.368;6.788;2023-04-10T04:10:42;5.90;;;5.00;;
11931;SDS011;6025;51.368;6.788;2023-04-10T04:15:33;5.83;;;4.70;;
11931;SDS011;6025;51.368;6.788;2023-04-10T04:20:25;5.30;;;4.80;;
11931;SDS011;6025;51.368;6.788;2023-04-10T04:25:18;4.93;;;4.43;;
11931;SDS011;6025;51.368;6.788;2023-04-10T04:30:10;5.43;;;4.77;;
11931;SDS011;6025;51.368;6.788;2023-04-10T04:35:02;6.10;;;4.60;;
11931;SDS011;6025;51.368;6.788;2023-04-10T04:39:53;5.57;;;4.80;;
11931;SDS011;6025;51.368;6.788;2023-04-10T04:44:47;5.40;;;4.77;;
11931;SDS011;6025;51.368;6.788;2023-04-10T04:49:39;5.80;;;5.20;;
11931;SDS011;6025;51.368;6.788;2023-04-10T04:54:30;8.20;;;4.97;;
11931;SDS011;6025;51.368;6.788;2023-04-10T04:59:22;5.03;;;4.53;;
11931;SDS011;6025;51.368;6.788;2023-04-10T05:04:15;5.97;;;5.07;;
11931;SDS011;6025;51.368;6.788;2023-04-10T05:09:06;5.87;;;5.07;;
11931;SDS011;6025;51.368;6.788;2023-04-10T05:13:58;6.03;;;5.10;;
11931;SDS011;6025;51.368;6.788;2023-04-10T05:18:50;6.30;;;5.10;;
11931;SDS011;6025;51.368;6.788;2023-04-10T05:23:43;5.60;;;4.83;;
11931;SDS011;6025;51.368;6.788;2023-04-10T05:28:34;5.30;;;4.80;;
11931;SDS011;6025;51.368;6.788;2023-04-10T05:33:26;5.67;;;4.83;;
11931;SDS011;6025;51.368;6.788;2023-04-10T05:38:17;6.03;;;4.73;;
11931;SDS011;6025;51.368;6.788;2023-04-10T05:43:10;6.10;;;5.00;;
11931;SDS011;6025;51.368;6.788;2023-04-10T05:48:02;5.10;;;4.60;;
11931;SDS011;6025;51.368;6.788;2023-04-10T05:52:54;5.37;;;4.80;;
11931;SDS011;6025;51.368;6.788;2023-04-10T05:57:46;6.17;;;5.13;;
11931;SDS011;6025;51.368;6.788;2023-04-10T06:02:38;7.77;;;5.10;;
11931;SDS011;6025;51.368;6.788;2023-04-10T06:07:30;5.77;;;4.97;;
11931;SDS011;6025;51.368;6.788;2023-04-10T06:12:22;5.60;;;4.63;;
11931;SDS011;6025;51.368;6.788;2023-04-10T06:17:14;5.53;;;4.90;;
11931;SDS011;6025;51.368;6.788;2023-04-10T06:22:06;5.57;;;4.78;;
11931;SDS011;6025;51.368;6.788;2023-04-10T06:26:58;5.57;;;4.80;;
11931;SDS011;6025;51.368;6.788;2023-04-10T06:31:49;5.50;;;4.47;;
11931;SDS011;6025;51.368;6.788;2023-04-10T06:36:41;5.77;;;4.97;;
11931;SDS011;6025;51.368;6.788;2023-04-10T06:41:34;5.30;;;4.65;;
11931;SDS011;6025;51.368;6.788;2023-04-10T06:46:26;5.07;;;4.57;;
11931;SDS011;6025;51.368;6.788;2023-04-10T06:51:17;5.90;;;4.88;;
11931;SDS011;6025;51.368;6.788;2023-04-10T06:56:09;5.38;;;4.70;;
11931;SDS011;6025;51.368;6.788;2023-04-10T07:01:02;5.20;;;4.32;;
11931;SDS011;6025;51.368;6.788;2023-04-10T07:05:54;5.05;;;4.53;;
11931;SDS011;6025;51.368;6.788;2023-04-10T07:10:45;5.82;;;4.75;;
11931;SDS011;6025;51.368;6.788;2023-04-10T07:15:37;5.00;;;4.47;;
11931;SDS011;6025;51.368;6.788;2023-04-10T07:20:30;5.55;;;4.60;;
11931;SDS011;6025;51.368;6.788;2023-04-10T07:25:22;5.05;;;4.30;;
11931;SDS011;6025;51.368;6.788;2023-04-10T07:30:13;4.57;;;4.18;;
11931;SDS011;6025;51.368;6.788;2023-04-10T07:35:05;6.72;;;4.60;;
11931;SDS011;6025;51.368;6.788;2023-04-10T07:39:59;4.95;;;4.30;;
11931;SDS011;6025;51.368;6.788;2023-04-10T07:44:51;4.47;;;4.07;;
11931;SDS011;6025;51.368;6.788;2023-04-10T07:49:43;6.05;;;4.63;;
11931;SDS011;6025;51.368;6.788;2023-04-10T07:54:34;4.55;;;4.05;;
11931;SDS011;6025;51.368;6.788;2023-04-10T07:59:27;4.60;;;4.20;;
11931;SDS011;6025;51.368;6.788;2023-04-10T08:04:19;4.50;;;3.80;;
11931;SDS011;6025;51.368;6.788;2023-04-10T08:09:10;4.97;;;4.20;;
11931;SDS011;6025;51.368;6.788;2023-04-10T08:14:02;5.10;;;4.18;;
11931;SDS011;6025;51.368;6.788;2023-04-10T08:18:56;4.68;;;4.18;;
11931;SDS011;6025;51.368;6.788;2023-04-10T08:23:49;3.85;;;3.50;;
11931;SDS011;6025;51.368;6.788;2023-04-10T08:28:40;4.28;;;3.88;;
11931;SDS011;6025;51.368;6.788;2023-04-10T08:33:36;4.55;;;4.13;;
11931;SDS011;6025;51.368;6.788;2023-04-10T08:38:29;4.68;;;4.07;;
11931;SDS011;6025;51.368;6.788;2023-04-10T08:43:20;4.38;;;3.92;;
11931;SDS011;6025;51.368;6.788;2023-04-10T08:48:12;4.63;;;4.22;;
11931;SDS011;6025;51.368;6.788;2023-04-10T08:53:06;4.53;;;4.13;;
11931;SDS011;6025;51.368;6.788;2023-04-10T08:58:00;4.70;;;4.00;;
11931;SDS011;6025;51.368;6.788;2023-04-10T09:02:53;4.75;;;3.47;;
11931;SDS011;6025;51.368;6.788;2023-04-10T09:07:47;4.10;;;3.50;;
11931;SDS011;6025;51.368;6.788;2023-04-10T09:12:42;4.57;;;3.50;;
11931;SDS011;6025;51.368;6.788;2023-04-10T09:17:36;4.03;;;3.50;;
11931;SDS011;6025;51.368;6.788;2023-04-10T09:22:28;3.90;;;3.30;;
11931;SDS011;6025;51.368;6.788;2023-04-10T09:27:27;3.72;;;3.40;;
11931;SDS011;6025;51.368;6.788;2023-04-10T09:32:38;4.28;;;3.65;;
11931;SDS011;6025;51.368;6.788;2023-04-10T09:37:31;5.53;;;4.60;;
11931;SDS011;6025;51.368;6.788;2023-04-10T09:42:28;3.95;;;3.55;;
11931;SDS011;6025;51.368;6.788;2023-04-10T09:47:21;4.93;;;3.28;;
11931;SDS011;6025;51.368;6.788;2023-04-10T09:52:18;7.15;;;3.42;;
11931;SDS011;6025;51.368;6.788;2023-04-10T09:57:10;6.53;;;3.28;;
11931;SDS011;6025;51.368;6.788;2023-04-10T10:02:03;4.95;;;3.30;;
11931;SDS011;6025;51.368;6.788;2023-04-10T10:06:56;4.00;;;3.33;;
11931;SDS011;6025;51.368;6.788;2023-04-10T10:11:49;3.20;;;2.78;;
11931;SDS011;6025;51.368;6.788;2023-04-10T10:16:42;3.20;;;2.90;;
11931;SDS011;6025;51.368;6.788;2023-04-10T10:21:35;3.20;;;2.90;;
11931;SDS011;6025;51.368;6.788;2023-04-10T10:26:28;3.38;;;3.08;;
11931;SDS011;6025;51.368;6.788;2023-04-10T10:31:22;3.45;;;3.10;;
11931;SDS011;6025;51.368;6.788;2023-04-10T10:36:16;3.00;;;2.70;;
11931;SDS011;6025;51.368;6.788;2023-04-10T10:41:09;2.70;;;2.50;;
11931;SDS011;6025;51.368;6.788;2023-04-10T10:46:03;3.50;;;3.10;;
11931;SDS011;6025;51.368;6.788;2023-04-10T10:50:59;3.30;;;3.00;;
11931;SDS011;6025;51.368;6.788;2023-04-10T10:55:52;3.15;;;2.85;;
11931;SDS011;6025;51.368;6.788;2023-04-10T11:06:13;3.20;;;2.90;;
11931;SDS011;6025;51.368;6.788;2023-04-10T11:11:06;3.03;;;2.63;;
11931;SDS011;6025;51.368;6.788;2023-04-10T11:15:59;3.17;;;2.78;;
11931;SDS011;6025;51.368;6.788;2023-04-10T11:21:07;3.03;;;2.72;;
11931;SDS011;6025;51.368;6.788;2023-04-10T11:26:01;2.72;;;2.53;;
11931;SDS011;6025;51.368;6.788;2023-04-10T11:30:52;3.15;;;2.85;;
11931;SDS011;6025;51.368;6.788;2023-04-10T11:35:45;4.20;;;3.00;;
11931;SDS011;6025;51.368;6.788;2023-04-10T11:40:51;3.03;;;2.70;;
11931;SDS011;6025;51.368;6.788;2023-04-10T11:45:45;3.72;;;2.75;;
11931;SDS011;6025;51.368;6.788;2023-04-10T11:50:37;3.10;;;2.60;;
11931;SDS011;6025;51.368;6.788;2023-04-10T11:55:35;3.03;;;2.72;;
11931;SDS011;6025;51.368;6.788;2023-04-10T12:00:28;3.45;;;2.88;;
11931;SDS011;6025;51.368;6.788;2023-04-10T12:05:21;2.80;;;2.60;;
11931;SDS011;6025;51.368;6.788;2023-04-10T12:10:13;3.17;;;2.88;;
11931;SDS011;6025;51.368;6.788;2023-04-10T12:20:17;2.75;;;2.47;;
11931;SDS011;6025;51.368;6.788;2023-04-10T12:25:12;4.15;;;2.60;;
11931;SDS011;6025;51.368;6.788;2023-04-10T12:30:06;3.17;;;2.80;;
11931;SDS011;6025;51.368;6.788;2023-04-10T12:34:59;3.10;;;2.80;;
11931;SDS011;6025;51.368;6.788;2023-04-10T12:39:50;3.13;;;2.30;;
11931;SDS011;6025;51.368;6.788;2023-04-10T12:44:50;2.95;;;2.60;;
11931;SDS011;6025;51.368;6.788;2023-04-10T12:55:06;3.35;;;3.03;;
11931;SDS011;6025;51.368;6.788;2023-04-10T13:00:00;3.03;;;2.78;;
11931;SDS011;6025;51.368;6.788;2023-04-10T13:04:53;3.05;;;2.75;;
11931;SDS011;6025;51.368;6.788;2023-04-10T13:09:44;3.10;;;2.80;;
11931;SDS011;6025;51.368;6.788;2023-04-10T13:14:36;2.60;;;2.33;;
11931;SDS011;6025;51.368;6.788;2023-04-10T13:19:29;2.85;;;2.65;;
11931;SDS011;6025;51.368;6.788;2023-04-10T13:24:20;2.70;;;2.50;;
11931;SDS011;6025;51.368;6.788;2023-04-10T13:29:12;2.78;;;2.35;;
11931;SDS011;6025;51.368;6.788;2023-04-10T13:34:03;4.03;;;3.35;;
11931;SDS011;6025;51.368;6.788;2023-04-10T13:38:56;2.40;;;2.20;;
11931;SDS011;6025;51.368;6.788;2023-04-10T13:43:47;3.42;;;2.40;;
11931;SDS011;6025;51.368;6.788;2023-04-10T13:48:39;2.50;;;2.30;;
11931;SDS011;6025;51.368;6.788;2023-04-10T13:53:34;2.33;;;2.13;;
11931;SDS011;6025;51.368;6.788;2023-04-10T13:58:27;2.72;;;2.20;;
11931;SDS011;6025;51.368;6.788;2023-04-10T14:03:20;2.78;;;2.10;;
11931;SDS011;6025;51.368;6.788;2023-04-10T14:08:12;2.40;;;2.20;;
11931;SDS011;6025;51.368;6.788;2023-04-10T14:13:04;4.25;;;2.28;;
11931;SDS011;6025;51.368;6.788;2023-04-10T14:17:57;2.30;;;2.10;;
11931;SDS011;6025;51.368;6.788;2023-04-10T14:22:49;2.30;;;1.98;;
11931;SDS011;6025;51.368;6.788;2023-04-10T14:27:42;2.13;;;1.92;;
11931;SDS011;6025;51.368;6.788;2023-04-10T14:32:33;2.28;;;1.73;;
11931;SDS011;6025;51.368;6.788;2023-04-10T14:37:26;2.10;;;1.90;;
11931;SDS011;6025;51.368;6.788;2023-04-10T14:42:18;2.10;;;1.90;;
11931;SDS011;6025;51.368;6.788;2023-04-10T14:47:09;2.58;;;2.38;;
11931;SDS011;6025;51.368;6.788;2023-04-10T14:52:01;2.20;;;2.00;;
11931;SDS011;6025;51.368;6.788;2023-04-10T14:56:54;2.88;;;2.10;;
11931;SDS011;6025;51.368;6.788;2023-04-10T15:01:46;2.42;;;1.67;;
11931;SDS011;6025;51.368;6.788;2023-04-10T15:06:37;2.25;;;1.90;;
11931;SDS011;6025;51.368;6.788;2023-04-10T15:11:29;2.30;;;1.88;;
11931;SDS011;6025;51.368;6.788;2023-04-10T15:16:21;1.90;;;1.60;;
11931;SDS011;6025;51.368;6.788;2023-04-10T15:21:13;2.13;;;1.92;;
11931;SDS011;6025;51.368;6.788;2023-04-10T15:26:09;2.53;;;1.92;;
11931;SDS011;6025;51.368;6.788;2023-04-10T15:31:01;2.47;;;1.90;;
11931;SDS011;6025;51.368;6.788;2023-04-10T15:35:54;2.25;;;1.95;;
11931;SDS011;6025;51.368;6.788;2023-04-10T15:40:45;2.17;;;1.90;;
11931;SDS011;6025;51.368;6.788;2023-04-10T15:45:37;2.35;;;2.15;;
11931;SDS011;6025;51.368;6.788;2023-04-10T15:50:28;2.17;;;1.75;;
11931;SDS011;6025;51.368;6.788;2023-04-10T15:55:21;2.10;;;1.90;;
11931;SDS011;6025;51.368;6.788;2023-04-10T16:00:13;2.83;;;2.03;;
11931;SDS011;6025;51.368;6.788;2023-04-10T16:05:05;2.40;;;2.20;;
11931;SDS011;6025;51.368;6.788;2023-04-10T16:09:58;2.20;;;2.00;;
11931;SDS011;6025;51.368;6.788;2023-04-10T16:14:51;2.65;;;2.28;;
11931;SDS011;6025;51.368;6.788;2023-04-10T16:19:42;2.30;;;1.98;;
11931;SDS011;6025;51.368;6.788;2023-04-10T16:24:34;2.17;;;1.98;;
11931;SDS011;6025;51.368;6.788;2023-04-10T16:29:25;4.38;;;2.00;;
11931;SDS011;6025;51.368;6.788;2023-04-10T16:34:18;4.70;;;1.90;;
11931;SDS011;6025;51.368;6.788;2023-04-10T16:39:10;4.30;;;2.33;;
11931;SDS011;6025;51.368;6.788;2023-04-10T16:44:01;5.05;;;2.30;;
11931;SDS011;6025;51.368;6.788;2023-04-10T16:48:53;4.10;;;2.17;;
11931;SDS011;6025;51.368;6.788;2023-04-10T16:53:46;4.18;;;2.22;;
11931;SDS011;6025;51.368;6.788;2023-04-10T16:58:37;3.85;;;2.35;;
11931;SDS011;6025;51.368;6.788;2023-04-10T17:03:32;5.00;;;2.40;;
11931;SDS011;6025;51.368;6.788;2023-04-10T17:08:23;3.38;;;2.38;;
11931;SDS011;6025;51.368;6.788;2023-04-10T17:13:16;4.28;;;2.67;;
11931;SDS011;6025;51.368;6.788;2023-04-10T17:18:08;3.75;;;2.70;;
11931;SDS011;6025;51.368;6.788;2023-04-10T17:23:00;4.22;;;2.55;;
11931;SDS011;6025;51.368;6.788;2023-04-10T17:27:51;6.82;;;2.70;;
11931;SDS011;6025;51.368;6.788;2023-04-10T17:32:44;7.78;;;2.75;;
11931;SDS011;6025;51.368;6.788;2023-04-10T17:37:38;4.80;;;2.97;;
11931;SDS011;6025;51.368;6.788;2023-04-10T17:42:29;4.57;;;3.10;;
11931;SDS011;6025;51.368;6.788;2023-04-10T17:47:21;4.30;;;3.10;;
11931;SDS011;6025;51.368;6.788;2023-04-10T17:52:13;3.97;;;2.95;;
11931;SDS011;6025;51.368;6.788;2023-04-10T17:57:05;3.83;;;3.45;;
11931;SDS011;6025;51.368;6.788;2023-04-10T18:01:57;3.65;;;3.33;;
11931;SDS011;6025;51.368;6.788;2023-04-10T18:06:48;4.82;;;3.20;;
11931;SDS011;6025;51.368;6.788;2023-04-10T18:11:41;6.80;;;3.78;;
11931;SDS011;6025;51.368;6.788;2023-04-10T18:16:32;5.88;;;3.55;;
11931;SDS011;6025;51.368;6.788;2023-04-10T18:21:24;4.68;;;4.20;;
11931;SDS011;6025;51.368;6.788;2023-04-10T18:26:16;4.15;;;3.30;;
11931;SDS011;6025;51.368;6.788;2023-04-10T18:31:11;5.75;;;4.10;;
11931;SDS011;6025;51.368;6.788;2023-04-10T18:36:05;10.35;;;3.92;;
11931;SDS011;6025;51.368;6.788;2023-04-10T18:40:57;5.35;;;3.90;;
11931;SDS011;6025;51.368;6.788;2023-04-10T18:45:48;5.03;;;3.63;;
11931;SDS011;6025;51.368;6.788;2023-04-10T18:50:41;4.82;;;3.70;;
11931;SDS011;6025;51.368;6.788;2023-04-10T18:55:33;6.18;;;4.00;;
11931;SDS011;6025;51.368;6.788;2023-04-10T19:00:24;4.75;;;3.20;;
11931;SDS011;6025;51.368;6.788;2023-04-10T19:05:16;4.97;;;3.70;;
11931;SDS011;6025;51.368;6.788;2023-04-10T19:10:09;6.68;;;4.13;;
11931;SDS011;6025;51.368;6.788;2023-04-10T19:15:02;6.80;;;4.00;;
11931;SDS011;6025;51.368;6.788;2023-04-10T19:19:54;4.53;;;4.13;;
11931;SDS011;6025;51.368;6.788;2023-04-10T19:24:46;4.90;;;3.80;;
11931;SDS011;6025;51.368;6.788;2023-04-10T19:29:39;6.78;;;3.40;;
11931;SDS011;6025;51.368;6.788;2023-04-10T19:34:31;6.03;;;3.00;;
11931;SDS011;6025;51.368;6.788;2023-04-10T19:39:22;3.97;;;2.00;;
11931;SDS011;6025;51.368;6.788;2023-04-10T19:44:14;3.72;;;2.05;;
11931;SDS011;6025;51.368;6.788;2023-04-10T19:49:07;4.43;;;2.17;;
11931;SDS011;6025;51.368;6.788;2023-04-10T19:53:58;4.25;;;2.25;;
11931;SDS011;6025;51.368;6.788;2023-04-10T19:58:50;5.57;;;2.70;;
11931;SDS011;6025;51.368;6.788;2023-04-10T20:03:42;4.47;;;2.20;;
11931;SDS011;6025;51.368;6.788;2023-04-10T20:08:35;2.65;;;2.20;;
11931;SDS011;6025;51.368;6.788;2023-04-10T20:13:26;3.03;;;2.17;;
11931;SDS011;6025;51.368;6.788;2023-04-10T20:18:18;3.03;;;2.05;;
11931;SDS011;6025;51.368;6.788;2023-04-10T20:23:10;4.07;;;2.00;;
11931;SDS011;6025;51.368;6.788;2023-04-10T20:28:03;2.83;;;2.05;;
11931;SDS011;6025;51.368;6.788;2023-04-10T20:32:55;4.85;;;2.03;;
11931;SDS011;6025;51.368;6.788;2023-04-10T20:37:47;2.50;;;1.83;;
11931;SDS011;6025;51.368;6.788;2023-04-10T20:42:39;4.07;;;2.05;;
11931;SDS011;6025;51.368;6.788;2023-04-10T20:47:34;4.60;;;2.03;;
11931;SDS011;6025;51.368;6.788;2023-04-10T20:52:25;2.40;;;1.67;;
11931;SDS011;6025;51.368;6.788;2023-04-10T20:57:17;2.70;;;1.70;;
11931;SDS011;6025;51.368;6.788;2023-04-10T21:02:09;3.83;;;1.50;;
11931;SDS011;6025;51.368;6.788;2023-04-10T21:07:01;4.35;;;1.67;;
11931;SDS011;6025;51.368;6.788;2023-04-10T21:11:53;2.00;;;1.42;;
11931;SDS011;6025;51.368;6.788;2023-04-10T21:16:44;4.78;;;1.77;;
11931;SDS011;6025;51.368;6.788;2023-04-10T21:21:36;3.43;;;1.50;;
11931;SDS011;6025;51.368;6.788;2023-04-10T21:26:29;2.67;;;1.30;;
11931;SDS011;6025;51.368;6.788;2023-04-10T21:31:20;2.00;;;1.30;;
11931;SDS011;6025;51.368;6.788;2023-04-10T21:36:12;2.17;;;1.20;;
11931;SDS011;6025;51.368;6.788;2023-04-10T21:41:04;2.80;;;1.20;;
11931;SDS011;6025;51.368;6.788;2023-04-10T21:45:57;3.63;;;1.20;;
11931;SDS011;6025;51.368;6.788;2023-04-10T21:50:48;2.23;;;1.20;;
11931;SDS011;6025;51.368;6.788;2023-04-10T21:55:40;3.30;;;1.10;;
11931;SDS011;6025;51.368;6.788;2023-04-10T22:00:32;1.43;;;1.20;;
11931;SDS011;6025;51.368;6.788;2023-04-10T22:05:25;2.97;;;1.33;;
11931;SDS011;6025;51.368;6.788;2023-04-10T22:10:16;4.77;;;1.60;;
11931;SDS011;6025;51.368;6.788;2023-04-10T22:15:09;1.90;;;1.10;;
11931;SDS011;6025;51.368;6.788;2023-04-10T22:20:00;3.17;;;1.20;;
11931;SDS011;6025;51.368;6.788;2023-04-10T22:24:54;4.87;;;1.40;;
11931;SDS011;6025;51.368;6.788;2023-04-10T22:29:45;3.07;;;1.23;;
11931;SDS011;6025;51.368;6.788;2023-04-10T22:34:37;3.07;;;1.23;;
11931;SDS011;6025;51.368;6.788;2023-04-10T22:39:28;2.10;;;1.10;;
11931;SDS011;6025;51.368;6.788;2023-04-10T22:44:21;3.53;;;1.27;;
11931;SDS011;6025;51.368;6.788;2023-04-10T22:49:12;1.67;;;1.13;;
11931;SDS011;6025;51.368;6.788;2023-04-10T22:54:06;3.23;;;1.40;;
11931;SDS011;6025;51.368;6.788;2023-04-10T22:58:57;2.70;;;1.40;;
11931;SDS011;6025;51.368;6.788;2023-04-10T23:03:50;2.33;;;1.37;;
11931;SDS011;6025;51.368;6.788;2023-04-10T23:08:42;2.43;;;1.10;;
11931;SDS011;6025;51.368;6.788;2023-04-10T23:13:34;2.17;;;1.37;;
11931;SDS011;6025;51.368;6.788;2023-04-10T23:18:26;3.00;;;1.33;;
11931;SDS011;6025;51.368;6.788;2023-04-10T23:23:19;2.50;;;1.40;;
11931;SDS011;6025;51.368;6.788;2023-04-10T23:28:10;3.90;;;1.47;;
11931;SDS011;6025;51.368;6.788;2023-04-10T23:33:02;2.93;;;1.30;;
11931;SDS011;6025;51.368;6.788;2023-04-10T23:37:53;2.83;;;1.37;;
11931;SDS011;6025;51.368;6.788;2023-04-10T23:42:46;2.70;;;1.43;;
11931;SDS011;6025;51.368;6.788;2023-04-10T23:47:38;5.23;;;1.77;;
11931;SDS011;6025;51.368;6.788;2023-04-10T23:52:29;3.60;;;1.70;;
11931;SDS011;6025;51.368;6.788;2023-04-10T23:57:21;3.13;;;1.43;;
